Time;durP1;ratioP1;P1;durP2;ratioP2;P2;SDS_P1;SDS_P2;PMS_P1;PMS_P2;Temp;Humidity;BMP_temperature;BMP_pressure;BME280_temperature;BME280_humidity;BME280_pressure;Samples;Min_cycle;Max_cycle;Signal;HPM_P1;HPM_P2
2023/11/19 00:01:33;;;;;;;37.90;18.20;;;;;;;-128.00;-1.00;-1.00;105416;1253;1004438;-79
2023/11/19 00:03:59;;;;;;;40.10;18.30;;;;;;;-128.00;-1.00;-1.00;105438;1253;1004582;-79
2023/11/19 00:06:26;;;;;;;45.20;20.00;;;;;;;-128.00;-1.00;-1.00;105435;1252;1003983;-79
2023/11/19 00:08:53;;;;;;;41.50;18.00;;;;;;;-128.00;-1.00;-1.00;105445;1253;1005175;-79
2023/11/19 00:11:19;;;;;;;40.60;19.70;;;;;;;-128.00;-1.00;-1.00;105452;1253;1003982;-78
2023/11/19 00:13:46;;;;;;;42.80;19.10;;;;;;;-128.00;-1.00;-1.00;105375;1253;1004007;-79
2023/11/19 00:16:12;;;;;;;31.60;18.00;;;;;;;-128.00;-1.00;-1.00;105426;1253;1005557;-79
2023/11/19 00:18:39;;;;;;;36.80;18.50;;;;;;;-128.00;-1.00;-1.00;105453;1252;1004133;-79
2023/11/19 00:21:08;;;;;;;56.20;27.40;;;;;;;-128.00;-1.00;-1.00;105427;1253;1004004;-79
2023/11/19 00:23:34;;;;;;;74.20;32.50;;;;;;;-128.00;-1.00;-1.00;105453;1253;1057524;-79
2023/11/19 00:26:01;;;;;;;40.30;20.50;;;;;;;-128.00;-1.00;-1.00;105295;1253;1004649;-79
2023/11/19 00:28:28;;;;;;;38.00;20.20;;;;;;;-128.00;-1.00;-1.00;105394;1254;1003525;-78
2023/11/19 00:30:55;;;;;;;35.20;20.10;;;;;;;-128.00;-1.00;-1.00;105352;1253;1004768;-79
2023/11/19 00:33:21;;;;;;;43.70;21.80;;;;;;;-128.00;-1.00;-1.00;105374;1253;1003784;-79
2023/11/19 00:35:48;;;;;;;49.30;22.30;;;;;;;-128.00;-1.00;-1.00;105394;1253;1004822;-79
2023/11/19 00:38:14;;;;;;;104.20;35.70;;;;;;;-128.00;-1.00;-1.00;105405;1253;1003775;-79
2023/11/19 00:40:41;;;;;;;68.40;27.60;;;;;;;-128.00;-1.00;-1.00;105411;1253;1003800;-78
2023/11/19 00:43:08;;;;;;;39.00;19.20;;;;;;;-128.00;-1.00;-1.00;105437;1253;1005149;-78
2023/11/19 00:45:35;;;;;;;38.50;18.20;;;;;;;-128.00;-1.00;-1.00;105495;1253;1004332;-79
2023/11/19 00:48:01;;;;;;;43.10;22.40;;;;;;;-128.00;-1.00;-1.00;105446;1252;1003287;-79
2023/11/19 00:50:29;;;;;;;38.10;19.60;;;;;;;-128.00;-1.00;-1.00;105414;1253;1003357;-79
2023/11/19 00:52:55;;;;;;;48.30;23.00;;;;;;;-128.00;-1.00;-1.00;105432;1252;1004729;-78
2023/11/19 00:55:22;;;;;;;32.90;18.20;;;;;;;-128.00;-1.00;-1.00;105424;1252;1003736;-80
2023/11/19 00:57:49;;;;;;;32.30;16.60;;;;;;;-128.00;-1.00;-1.00;105327;1253;1003621;-79
2023/11/19 01:00:19;;;;;;;36.00;18.10;;;;;;;-128.00;-1.00;-1.00;105469;1252;1004883;-80
2023/11/19 01:02:46;;;;;;;40.50;18.80;;;;;;;-128.00;-1.00;-1.00;105419;1253;1058460;-79
2023/11/19 01:05:15;;;;;;;35.90;17.50;;;;;;;-128.00;-1.00;-1.00;105432;1253;1003877;-79
2023/11/19 01:07:43;;;;;;;38.70;18.20;;;;;;;-128.00;-1.00;-1.00;105418;1253;1046994;-79
2023/11/19 01:10:10;;;;;;;33.90;17.00;;;;;;;-128.00;-1.00;-1.00;105426;1253;1003663;-79
2023/11/19 01:12:37;;;;;;;43.90;21.80;;;;;;;-128.00;-1.00;-1.00;105429;1253;1004779;-79
2023/11/19 01:15:06;;;;;;;66.00;26.90;;;;;;;-128.00;-1.00;-1.00;105442;1253;1004978;-80
2023/11/19 01:17:32;;;;;;;43.30;18.70;;;;;;;-128.00;-1.00;-1.00;105451;1253;1003507;-79
2023/11/19 01:19:59;;;;;;;44.70;20.00;;;;;;;-128.00;-1.00;-1.00;105480;1253;1004650;-79
2023/11/19 01:22:26;;;;;;;46.50;20.20;;;;;;;-128.00;-1.00;-1.00;105463;1251;1004154;-79
2023/11/19 01:24:54;;;;;;;36.00;18.00;;;;;;;-128.00;-1.00;-1.00;105477;1253;1004284;-79
2023/11/19 01:27:20;;;;;;;40.30;18.10;;;;;;;-128.00;-1.00;-1.00;105467;1252;1003841;-79
2023/11/19 01:29:47;;;;;;;44.90;21.80;;;;;;;-128.00;-1.00;-1.00;105446;1253;1004068;-78
2023/11/19 01:32:13;;;;;;;54.00;24.20;;;;;;;-128.00;-1.00;-1.00;105437;1253;1004547;-79
2023/11/19 01:34:41;;;;;;;50.30;24.10;;;;;;;-128.00;-1.00;-1.00;105445;1253;1004535;-79
2023/11/19 01:37:10;;;;;;;47.40;23.50;;;;;;;-128.00;-1.00;-1.00;105465;1253;1003523;-79
2023/11/19 01:39:36;;;;;;;49.00;26.10;;;;;;;-128.00;-1.00;-1.00;105438;1253;1058711;-79
2023/11/19 01:42:03;;;;;;;47.90;23.60;;;;;;;-128.00;-1.00;-1.00;105404;1253;1003893;-79
2023/11/19 01:44:32;;;;;;;41.90;21.80;;;;;;;-128.00;-1.00;-1.00;105450;1252;1004678;-79
2023/11/19 01:46:58;;;;;;;45.30;23.00;;;;;;;-128.00;-1.00;-1.00;105419;1253;1003490;-79
2023/11/19 01:49:25;;;;;;;65.00;27.40;;;;;;;-128.00;-1.00;-1.00;105410;1253;1003996;-78
2023/11/19 01:51:51;;;;;;;123.00;41.20;;;;;;;-128.00;-1.00;-1.00;105411;1253;1003503;-79
2023/11/19 01:54:18;;;;;;;85.20;32.40;;;;;;;-128.00;-1.00;-1.00;105455;1253;1004174;-79
2023/11/19 01:56:44;;;;;;;89.30;35.50;;;;;;;-128.00;-1.00;-1.00;105416;1253;1005311;-79
2023/11/19 01:59:12;;;;;;;126.30;45.00;;;;;;;-128.00;-1.00;-1.00;105459;1253;1003793;-80
2023/11/19 02:01:40;;;;;;;71.10;33.70;;;;;;;-128.00;-1.00;-1.00;105358;1253;1004706;-79
2023/11/19 02:04:07;;;;;;;44.80;21.90;;;;;;;-128.00;-1.00;-1.00;105441;1253;1003549;-79
2023/11/19 02:06:34;;;;;;;51.10;28.00;;;;;;;-128.00;-1.00;-1.00;105459;1253;1004791;-79
2023/11/19 02:09:01;;;;;;;44.30;25.50;;;;;;;-128.00;-1.00;-1.00;105469;1252;1004993;-79
2023/11/19 02:11:29;;;;;;;46.90;27.30;;;;;;;-128.00;-1.00;-1.00;105467;1252;1004575;-79
2023/11/19 02:13:56;;;;;;;51.20;24.30;;;;;;;-128.00;-1.00;-1.00;105450;1252;1003990;-79
2023/11/19 02:16:23;;;;;;;41.20;22.70;;;;;;;-128.00;-1.00;-1.00;105369;1253;1004532;-79
2023/11/19 02:18:49;;;;;;;39.60;18.60;;;;;;;-128.00;-1.00;-1.00;105484;1253;1004964;-79
2023/11/19 02:21:17;;;;;;;42.20;21.20;;;;;;;-128.00;-1.00;-1.00;105506;1252;1005140;-78
2023/11/19 02:23:44;;;;;;;58.30;25.70;;;;;;;-128.00;-1.00;-1.00;105471;1253;1005668;-79
2023/11/19 02:26:32;;;;;;;44.70;22.20;;;;;;;-128.00;-1.00;-1.00;105448;1253;1004054;-79
2023/11/19 02:28:58;;;;;;;43.90;20.10;;;;;;;-128.00;-1.00;-1.00;105411;1253;1059458;-78
2023/11/19 02:31:27;;;;;;;43.10;20.20;;;;;;;-128.00;-1.00;-1.00;105430;1253;1004436;-80
2023/11/19 02:33:54;;;;;;;39.50;18.30;;;;;;;-128.00;-1.00;-1.00;105445;1252;1047832;-79
2023/11/19 02:36:21;;;;;;;37.70;19.30;;;;;;;-128.00;-1.00;-1.00;105409;1253;1004395;-80
2023/11/19 02:38:48;;;;;;;40.90;19.40;;;;;;;-128.00;-1.00;-1.00;105348;1253;1005137;-79
2023/11/19 02:41:14;;;;;;;46.60;21.10;;;;;;;-128.00;-1.00;-1.00;105356;1253;1003835;-79
2023/11/19 02:43:41;;;;;;;41.60;21.10;;;;;;;-128.00;-1.00;-1.00;105384;1253;1003311;-78
2023/11/19 02:46:08;;;;;;;44.40;19.60;;;;;;;-128.00;-1.00;-1.00;105436;1252;1004258;-79
2023/11/19 02:48:35;;;;;;;42.30;20.20;;;;;;;-128.00;-1.00;-1.00;105426;1253;1005120;-79
2023/11/19 02:51:03;;;;;;;44.30;22.20;;;;;;;-128.00;-1.00;-1.00;105415;1253;1005222;-79
2023/11/19 02:53:30;;;;;;;41.20;20.80;;;;;;;-128.00;-1.00;-1.00;105508;1253;1004009;-80
2023/11/19 02:56:11;;;;;;;35.50;18.90;;;;;;;-128.00;-1.00;-1.00;105455;1253;1004306;-79
2023/11/19 02:58:39;;;;;;;35.60;17.50;;;;;;;-128.00;-1.00;-1.00;105459;1253;1046730;-79
2023/11/19 03:01:23;;;;;;;35.60;17.70;;;;;;;-128.00;-1.00;-1.00;105330;1253;1003812;-79
2023/11/19 03:03:54;;;;;;;35.40;17.80;;;;;;;-128.00;-1.00;-1.00;105489;1253;1058115;-79
2023/11/19 03:06:24;;;;;;;34.20;17.80;;;;;;;-128.00;-1.00;-1.00;105449;1252;1060034;-79
2023/11/19 03:08:50;;;;;;;40.80;17.20;;;;;;;-128.00;-1.00;-1.00;105416;1256;1046297;-79
2023/11/19 03:11:17;;;;;;;39.40;18.50;;;;;;;-128.00;-1.00;-1.00;105431;1253;1004810;-79
2023/11/19 03:13:43;;;;;;;38.30;20.50;;;;;;;-128.00;-1.00;-1.00;105427;1253;1004121;-78
2023/11/19 03:16:11;;;;;;;46.40;20.60;;;;;;;-128.00;-1.00;-1.00;105469;1253;1004108;-79
2023/11/19 03:18:39;;;;;;;38.50;18.00;;;;;;;-128.00;-1.00;-1.00;105477;1253;1005057;-79
2023/11/19 03:21:07;;;;;;;36.90;19.00;;;;;;;-128.00;-1.00;-1.00;105426;1253;1004033;-79
2023/11/19 03:23:35;;;;;;;51.60;25.50;;;;;;;-128.00;-1.00;-1.00;105428;1253;1046392;-78
2023/11/19 03:26:05;;;;;;;64.80;31.30;;;;;;;-128.00;-1.00;-1.00;105494;1252;1004782;-79
2023/11/19 03:28:32;;;;;;;42.50;22.80;;;;;;;-128.00;-1.00;-1.00;105468;1253;1058203;-79
2023/11/19 03:30:58;;;;;;;37.80;20.50;;;;;;;-128.00;-1.00;-1.00;105415;1256;1004888;-79
2023/11/19 03:33:27;;;;;;;38.90;20.10;;;;;;;-128.00;-1.00;-1.00;105462;1253;1003424;-78
2023/11/19 03:35:56;;;;;;;;;;;;;;;-128.00;-1.00;-1.00;105378;1253;1047120;-78
2023/11/19 03:38:24;;;;;;;36.80;17.90;;;;;;;-128.00;-1.00;-1.00;105472;1253;1061453;-78
2023/11/19 03:40:51;;;;;;;36.10;14.60;;;;;;;-128.00;-1.00;-1.00;105494;1253;1004446;-79
2023/11/19 03:43:19;;;;;;;43.10;19.40;;;;;;;-128.00;-1.00;-1.00;105482;1252;1003992;-78
2023/11/19 03:45:46;;;;;;;40.50;19.90;;;;;;;-128.00;-1.00;-1.00;105456;1253;1003823;-80
2023/11/19 03:48:15;;;;;;;43.10;20.10;;;;;;;-128.00;-1.00;-1.00;105512;1252;1004037;-80
2023/11/19 03:50:43;;;;;;;40.70;18.80;;;;;;;-128.00;-1.00;-1.00;105353;1253;1061223;-79
2023/11/19 03:53:09;;;;;;;41.40;19.70;;;;;;;-128.00;-1.00;-1.00;105241;1254;1004684;-79
2023/11/19 03:55:36;;;;;;;39.00;19.00;;;;;;;-128.00;-1.00;-1.00;105317;1253;1004563;-79
2023/11/19 03:58:02;;;;;;;47.90;21.80;;;;;;;-128.00;-1.00;-1.00;105372;1252;1003824;-79
2023/11/19 04:00:29;;;;;;;57.00;24.50;;;;;;;-128.00;-1.00;-1.00;105365;1254;1003972;-78
2023/11/19 04:02:56;;;;;;;49.20;23.70;;;;;;;-128.00;-1.00;-1.00;105445;1253;1003572;-78
2023/11/19 04:05:22;;;;;;;60.10;27.40;;;;;;;-128.00;-1.00;-1.00;105469;1253;1004315;-78
2023/11/19 04:07:49;;;;;;;202.80;67.10;;;;;;;-128.00;-1.00;-1.00;105440;1253;1004540;-78
2023/11/19 04:10:16;;;;;;;123.50;50.20;;;;;;;-128.00;-1.00;-1.00;105438;1254;1004360;-78
2023/11/19 04:12:43;;;;;;;66.40;30.70;;;;;;;-128.00;-1.00;-1.00;105491;1254;1004066;-79
2023/11/19 04:15:10;;;;;;;54.20;27.10;;;;;;;-128.00;-1.00;-1.00;105464;1256;1005330;-79
2023/11/19 04:17:37;;;;;;;57.20;26.50;;;;;;;-128.00;-1.00;-1.00;105466;1253;1004291;-79
2023/11/19 04:20:05;;;;;;;48.70;21.40;;;;;;;-128.00;-1.00;-1.00;105399;1254;1004534;-78
2023/11/19 04:22:32;;;;;;;42.30;19.80;;;;;;;-128.00;-1.00;-1.00;105434;1253;1045496;-79
2023/11/19 04:24:58;;;;;;;44.30;17.30;;;;;;;-128.00;-1.00;-1.00;105460;1252;1003658;-79
2023/11/19 04:27:25;;;;;;;36.20;18.30;;;;;;;-128.00;-1.00;-1.00;105473;1253;1003862;-79
2023/11/19 04:29:52;;;;;;;34.70;17.00;;;;;;;-128.00;-1.00;-1.00;105427;1253;1005892;-78
2023/11/19 04:32:19;;;;;;;42.00;19.30;;;;;;;-128.00;-1.00;-1.00;105428;1253;1004335;-79
2023/11/19 04:34:45;;;;;;;48.60;23.60;;;;;;;-128.00;-1.00;-1.00;105422;1253;1004502;-79
2023/11/19 04:37:12;;;;;;;47.30;25.80;;;;;;;-128.00;-1.00;-1.00;105471;1252;1004265;-78
2023/11/19 04:39:38;;;;;;;73.60;37.50;;;;;;;-128.00;-1.00;-1.00;105403;1253;1004581;-78
2023/11/19 04:42:06;;;;;;;64.80;31.90;;;;;;;-128.00;-1.00;-1.00;105451;1253;1003540;-78
2023/11/19 04:44:33;;;;;;;83.60;38.00;;;;;;;-128.00;-1.00;-1.00;105452;1253;1004032;-79
2023/11/19 04:46:59;;;;;;;71.00;32.10;;;;;;;-128.00;-1.00;-1.00;105444;1254;1004348;-79
2023/11/19 04:49:26;;;;;;;117.90;52.30;;;;;;;-128.00;-1.00;-1.00;105436;1254;1004048;-79
2023/11/19 04:51:53;;;;;;;69.30;31.80;;;;;;;-128.00;-1.00;-1.00;105415;1254;1004381;-79
2023/11/19 04:54:20;;;;;;;64.40;29.50;;;;;;;-128.00;-1.00;-1.00;105427;1253;1004354;-79
2023/11/19 04:56:47;;;;;;;49.80;24.10;;;;;;;-128.00;-1.00;-1.00;105403;1253;1005726;-79
2023/11/19 04:59:13;;;;;;;53.40;25.80;;;;;;;-128.00;-1.00;-1.00;105412;1253;1003992;-79
2023/11/19 05:01:40;;;;;;;114.90;47.00;;;;;;;-128.00;-1.00;-1.00;105416;1255;1004303;-79
2023/11/19 05:04:07;;;;;;;100.30;42.00;;;;;;;-128.00;-1.00;-1.00;105385;1254;1003638;-79
2023/11/19 05:06:35;;;;;;;65.60;29.50;;;;;;;-128.00;-1.00;-1.00;105382;1253;1004321;-79
2023/11/19 05:09:03;;;;;;;61.80;25.20;;;;;;;-128.00;-1.00;-1.00;105325;1253;1004146;-80
2023/11/19 05:11:30;;;;;;;63.00;26.10;;;;;;;-128.00;-1.00;-1.00;105418;1254;1045337;-78
2023/11/19 05:13:56;;;;;;;56.30;23.90;;;;;;;-128.00;-1.00;-1.00;105434;1254;1004699;-79
2023/11/19 05:16:23;;;;;;;47.70;23.10;;;;;;;-128.00;-1.00;-1.00;105472;1254;1004090;-79
2023/11/19 05:18:50;;;;;;;56.10;27.30;;;;;;;-128.00;-1.00;-1.00;105428;1253;1004748;-78
2023/11/19 05:21:17;;;;;;;68.10;26.80;;;;;;;-128.00;-1.00;-1.00;105439;1254;1004116;-78
2023/11/19 05:23:43;;;;;;;51.80;26.50;;;;;;;-128.00;-1.00;-1.00;105441;1254;1003997;-79
2023/11/19 05:26:17;;;;;;;71.80;31.20;;;;;;;-128.00;-1.00;-1.00;105468;1254;1004521;-78
2023/11/19 05:28:44;;;;;;;81.90;37.60;;;;;;;-128.00;-1.00;-1.00;105461;1254;1061476;-78
2023/11/19 05:31:10;;;;;;;83.00;37.40;;;;;;;-128.00;-1.00;-1.00;105434;1253;1004433;-78
2023/11/19 05:33:37;;;;;;;75.50;34.30;;;;;;;-128.00;-1.00;-1.00;105448;1253;1004519;-79
2023/11/19 05:36:04;;;;;;;77.90;38.00;;;;;;;-128.00;-1.00;-1.00;105419;1253;1004744;-79
2023/11/19 05:38:31;;;;;;;82.10;36.70;;;;;;;-128.00;-1.00;-1.00;105511;1253;1004176;-79
2023/11/19 05:40:57;;;;;;;85.00;36.80;;;;;;;-128.00;-1.00;-1.00;105502;1252;1004280;-78
2023/11/19 05:43:24;;;;;;;61.90;29.80;;;;;;;-128.00;-1.00;-1.00;105436;1253;1004047;-78
2023/11/19 05:45:51;;;;;;;69.20;32.20;;;;;;;-128.00;-1.00;-1.00;105546;1252;1004989;-79
2023/11/19 05:48:17;;;;;;;72.80;35.70;;;;;;;-128.00;-1.00;-1.00;105465;1253;1003577;-78
2023/11/19 05:50:44;;;;;;;83.60;37.20;;;;;;;-128.00;-1.00;-1.00;105479;1253;1003919;-78
2023/11/19 05:53:13;;;;;;;99.80;44.40;;;;;;;-128.00;-1.00;-1.00;105432;1254;1004330;-78
2023/11/19 05:55:55;;;;;;;79.80;39.80;;;;;;;-128.00;-1.00;-1.00;105488;1253;1058543;-78
2023/11/19 05:58:29;;;;;;;73.30;37.50;;;;;;;-128.00;-1.00;-1.00;105415;1254;1059944;-78
2023/11/19 06:00:56;;;;;;;76.10;40.30;;;;;;;-128.00;-1.00;-1.00;105460;1254;1045463;-79
2023/11/19 06:03:23;;;;;;;80.20;39.50;;;;;;;-128.00;-1.00;-1.00;105350;1254;1004207;-78
2023/11/19 06:05:49;;;;;;;52.90;28.90;;;;;;;-128.00;-1.00;-1.00;105478;1252;1004180;-79
2023/11/19 06:08:16;;;;;;;53.00;25.90;;;;;;;-128.00;-1.00;-1.00;105457;1253;1005145;-79
2023/11/19 06:10:46;;;;;;;42.90;21.20;;;;;;;-128.00;-1.00;-1.00;105455;1252;1004943;-78
2023/11/19 06:13:14;;;;;;;53.90;24.80;;;;;;;-128.00;-1.00;-1.00;105454;1254;1045059;-78
2023/11/19 06:15:44;;;;;;;75.70;31.50;;;;;;;-128.00;-1.00;-1.00;105445;1253;1047730;-78
2023/11/19 06:18:12;;;;;;;122.30;45.00;;;;;;;-128.00;-1.00;-1.00;105458;1253;1061359;-78
2023/11/19 06:20:38;;;;;;;49.30;25.30;;;;;;;-128.00;-1.00;-1.00;105450;1253;1004937;-78
2023/11/19 06:23:05;;;;;;;54.00;25.00;;;;;;;-128.00;-1.00;-1.00;105426;1253;1004936;-78
2023/11/19 06:25:32;;;;;;;44.90;24.60;;;;;;;-128.00;-1.00;-1.00;105474;1252;1004635;-78
2023/11/19 06:27:59;;;;;;;50.80;22.60;;;;;;;-128.00;-1.00;-1.00;105418;1252;1004475;-78
2023/11/19 06:30:28;;;;;;;51.60;23.30;;;;;;;-128.00;-1.00;-1.00;105450;1254;1004015;-79
2023/11/19 06:32:54;;;;;;;48.40;21.70;;;;;;;-128.00;-1.00;-1.00;105334;1252;1058137;-78
2023/11/19 06:35:21;;;;;;;59.20;31.30;;;;;;;-128.00;-1.00;-1.00;105468;1253;1003765;-79
2023/11/19 06:37:47;;;;;;;47.00;27.00;;;;;;;-128.00;-1.00;-1.00;105431;1254;1004298;-79
2023/11/19 06:40:15;;;;;;;40.40;21.80;;;;;;;-128.00;-1.00;-1.00;105504;1253;1006093;-79
2023/11/19 06:42:42;;;;;;;44.70;25.10;;;;;;;-128.00;-1.00;-1.00;105456;1253;1005112;-78
2023/11/19 06:45:09;;;;;;;49.20;22.20;;;;;;;-128.00;-1.00;-1.00;105451;1253;1003449;-79
2023/11/19 06:47:36;;;;;;;75.40;33.60;;;;;;;-128.00;-1.00;-1.00;105441;1253;1004959;-78
2023/11/19 06:50:05;;;;;;;178.70;68.00;;;;;;;-128.00;-1.00;-1.00;105461;1252;1004532;-79
2023/11/19 06:52:32;;;;;;;65.50;33.80;;;;;;;-128.00;-1.00;-1.00;105418;1253;1047352;-79
2023/11/19 06:54:58;;;;;;;49.10;23.50;;;;;;;-128.00;-1.00;-1.00;105342;1253;1004293;-78
2023/11/19 06:57:25;;;;;;;39.60;17.90;;;;;;;-128.00;-1.00;-1.00;105423;1253;1003507;-78
2023/11/19 06:59:51;;;;;;;41.40;22.40;;;;;;;-128.00;-1.00;-1.00;105425;1252;1003981;-78
2023/11/19 07:02:18;;;;;;;38.20;20.70;;;;;;;-128.00;-1.00;-1.00;105433;1253;1004135;-78
2023/11/19 07:04:44;;;;;;;41.80;21.50;;;;;;;-128.00;-1.00;-1.00;105478;1252;1004370;-78
2023/11/19 07:07:11;;;;;;;43.70;24.40;;;;;;;-128.00;-1.00;-1.00;105517;1254;1004399;-79
2023/11/19 07:09:38;;;;;;;48.20;28.40;;;;;;;-128.00;-1.00;-1.00;105467;1253;1003931;-79
2023/11/19 07:12:05;;;;;;;40.80;21.70;;;;;;;-128.00;-1.00;-1.00;105428;1253;1004229;-78
2023/11/19 07:14:31;;;;;;;45.60;27.10;;;;;;;-128.00;-1.00;-1.00;105442;1256;1004793;-79
2023/11/19 07:17:00;;;;;;;49.80;26.00;;;;;;;-128.00;-1.00;-1.00;105478;1254;1004319;-79
2023/11/19 07:19:26;;;;;;;30.30;18.10;;;;;;;-128.00;-1.00;-1.00;105516;1253;1004966;-79
2023/11/19 07:21:54;;;;;;;45.70;22.20;;;;;;;-128.00;-1.00;-1.00;105445;1253;1003783;-78
2023/11/19 07:24:21;;;;;;;37.70;20.80;;;;;;;-128.00;-1.00;-1.00;105459;1253;1003808;-78
2023/11/19 07:26:48;;;;;;;38.80;20.00;;;;;;;-128.00;-1.00;-1.00;105454;1252;1004639;-79
2023/11/19 07:29:16;;;;;;;54.40;29.60;;;;;;;-128.00;-1.00;-1.00;105474;1252;1004014;-78
2023/11/19 07:31:44;;;;;;;61.60;34.30;;;;;;;-128.00;-1.00;-1.00;105520;1252;1004530;-79
2023/11/19 07:34:11;;;;;;;98.70;50.20;;;;;;;-128.00;-1.00;-1.00;105352;1253;1004689;-79
2023/11/19 07:36:38;;;;;;;91.60;47.20;;;;;;;-128.00;-1.00;-1.00;105429;1253;1004683;-79
2023/11/19 07:39:04;;;;;;;62.70;31.40;;;;;;;-128.00;-1.00;-1.00;105460;1252;1004761;-78
2023/11/19 07:41:31;;;;;;;60.50;30.40;;;;;;;-128.00;-1.00;-1.00;105456;1254;1003505;-78
2023/11/19 07:43:58;;;;;;;61.60;38.10;;;;;;;-128.00;-1.00;-1.00;105489;1254;1005124;-78
2023/11/19 07:46:25;;;;;;;58.60;32.40;;;;;;;-128.00;-1.00;-1.00;105501;1252;1003896;-78
2023/11/19 07:48:52;;;;;;;59.30;32.00;;;;;;;-128.00;-1.00;-1.00;105427;1253;1004435;-78
2023/11/19 07:51:18;;;;;;;66.80;34.10;;;;;;;-128.00;-1.00;-1.00;105416;1253;1004820;-78
2023/11/19 07:53:45;;;;;;;99.80;53.80;;;;;;;-128.00;-1.00;-1.00;105428;1253;1004872;-78
2023/11/19 07:56:11;;;;;;;87.20;51.60;;;;;;;-128.00;-1.00;-1.00;105452;1253;1004800;-78
2023/11/19 07:58:38;;;;;;;78.40;40.90;;;;;;;-128.00;-1.00;-1.00;105449;1252;1004576;-78
2023/11/19 08:01:05;;;;;;;47.30;27.70;;;;;;;-128.00;-1.00;-1.00;105487;1252;1005216;-78
2023/11/19 08:03:34;;;;;;;55.10;30.00;;;;;;;-128.00;-1.00;-1.00;105407;1253;1003919;-78
2023/11/19 08:06:01;;;;;;;53.30;31.30;;;;;;;-128.00;-1.00;-1.00;105463;1252;1047986;-78
2023/11/19 08:08:29;;;;;;;61.90;40.70;;;;;;;-128.00;-1.00;-1.00;105415;1252;1004940;-78
2023/11/19 08:10:56;;;;;;;54.80;32.30;;;;;;;-128.00;-1.00;-1.00;105426;1253;1003890;-79
2023/11/19 08:13:26;;;;;;;50.60;24.50;;;;;;;-128.00;-1.00;-1.00;105457;1252;1004678;-78
2023/11/19 08:15:53;;;;;;;50.90;28.30;;;;;;;-128.00;-1.00;-1.00;105499;1252;1045862;-78
2023/11/19 08:18:19;;;;;;;70.20;42.60;;;;;;;-128.00;-1.00;-1.00;105460;1254;1005019;-77
2023/11/19 08:20:48;;;;;;;57.00;30.40;;;;;;;-128.00;-1.00;-1.00;105466;1253;1004652;-78
2023/11/19 08:23:15;;;;;;;46.60;26.60;;;;;;;-128.00;-1.00;-1.00;105450;1253;1057966;-78
2023/11/19 08:25:42;;;;;;;64.10;36.50;;;;;;;-128.00;-1.00;-1.00;105489;1252;1004543;-78
2023/11/19 08:28:08;;;;;;;66.90;37.00;;;;;;;-128.00;-1.00;-1.00;105451;1252;1005170;-78
2023/11/19 08:30:35;;;;;;;71.80;41.20;;;;;;;-128.00;-1.00;-1.00;105424;1253;1003789;-78
2023/11/19 08:33:02;;;;;;;61.20;36.20;;;;;;;-128.00;-1.00;-1.00;105432;1253;1003679;-78
2023/11/19 08:35:29;;;;;;;56.30;30.10;;;;;;;-128.00;-1.00;-1.00;105476;1252;1004228;-79
2023/11/19 08:37:57;;;;;;;47.40;27.60;;;;;;;-128.00;-1.00;-1.00;105431;1253;1004199;-78
2023/11/19 08:40:23;;;;;;;52.20;31.00;;;;;;;-128.00;-1.00;-1.00;105460;1252;1003925;-78
2023/11/19 08:42:50;;;;;;;48.10;28.60;;;;;;;-128.00;-1.00;-1.00;105496;1252;1004775;-78
2023/11/19 08:45:16;;;;;;;51.40;29.80;;;;;;;-128.00;-1.00;-1.00;105491;1252;1004964;-78
2023/11/19 08:47:45;;;;;;;40.20;24.70;;;;;;;-128.00;-1.00;-1.00;105496;1252;1005119;-78
2023/11/19 08:50:11;;;;;;;43.10;25.30;;;;;;;-128.00;-1.00;-1.00;105421;1252;1004725;-78
2023/11/19 08:52:38;;;;;;;44.20;23.50;;;;;;;-128.00;-1.00;-1.00;105399;1252;1003906;-78
2023/11/19 08:55:05;;;;;;;42.50;24.00;;;;;;;-128.00;-1.00;-1.00;105469;1256;1004254;-78
2023/11/19 08:57:32;;;;;;;46.80;21.50;;;;;;;-128.00;-1.00;-1.00;105450;1254;1004348;-78
2023/11/19 08:59:59;;;;;;;40.40;19.20;;;;;;;-128.00;-1.00;-1.00;105463;1253;1003601;-78
2023/11/19 09:02:26;;;;;;;51.40;23.70;;;;;;;-128.00;-1.00;-1.00;105409;1253;1003507;-78
2023/11/19 09:04:52;;;;;;;67.40;35.50;;;;;;;-128.00;-1.00;-1.00;105441;1253;1004511;-78
2023/11/19 09:07:19;;;;;;;65.80;38.20;;;;;;;-128.00;-1.00;-1.00;105467;1252;1004513;-78
2023/11/19 09:09:45;;;;;;;63.10;33.90;;;;;;;-128.00;-1.00;-1.00;105448;1253;1004042;-78
2023/11/19 09:12:13;;;;;;;63.60;33.40;;;;;;;-128.00;-1.00;-1.00;105477;1252;1004106;-78
2023/11/19 09:14:41;;;;;;;47.90;24.40;;;;;;;-128.00;-1.00;-1.00;105459;1252;1004024;-78
2023/11/19 09:17:09;;;;;;;50.00;30.90;;;;;;;-128.00;-1.00;-1.00;105458;1252;1004612;-78
2023/11/19 09:19:36;;;;;;;42.00;21.10;;;;;;;-128.00;-1.00;-1.00;105491;1252;1003143;-78
2023/11/19 09:22:02;;;;;;;51.70;28.50;;;;;;;-128.00;-1.00;-1.00;105484;1252;1004655;-78
2023/11/19 09:24:29;;;;;;;40.70;21.30;;;;;;;-128.00;-1.00;-1.00;105496;1252;1004967;-79
2023/11/19 09:26:56;;;;;;;31.30;17.60;;;;;;;-128.00;-1.00;-1.00;105487;1253;1003418;-78
2023/11/19 09:29:23;;;;;;;38.20;21.30;;;;;;;-128.00;-1.00;-1.00;105473;1252;1004564;-78
2023/11/19 09:31:50;;;;;;;46.50;23.70;;;;;;;-128.00;-1.00;-1.00;105421;1253;1004873;-78
2023/11/19 09:34:16;;;;;;;51.00;28.20;;;;;;;-128.00;-1.00;-1.00;105497;1252;1005436;-79
2023/11/19 09:36:44;;;;;;;42.10;25.70;;;;;;;-128.00;-1.00;-1.00;105476;1252;1004017;-78
2023/11/19 09:39:12;;;;;;;42.80;23.70;;;;;;;-128.00;-1.00;-1.00;105486;1252;1004172;-78
2023/11/19 09:41:39;;;;;;;45.20;26.40;;;;;;;-128.00;-1.00;-1.00;105445;1253;1046262;-78
2023/11/19 09:44:06;;;;;;;38.70;21.80;;;;;;;-128.00;-1.00;-1.00;105528;1252;1004423;-78
2023/11/19 09:46:32;;;;;;;53.20;26.50;;;;;;;-128.00;-1.00;-1.00;105486;1252;1004100;-78
2023/11/19 09:48:59;;;;;;;62.50;27.60;;;;;;;-128.00;-1.00;-1.00;105329;1254;1003452;-79
2023/11/19 09:51:26;;;;;;;68.50;31.50;;;;;;;-128.00;-1.00;-1.00;105316;1253;1004496;-79
2023/11/19 09:53:52;;;;;;;75.20;33.90;;;;;;;-128.00;-1.00;-1.00;105244;1252;1004646;-79
2023/11/19 09:56:19;;;;;;;61.10;28.00;;;;;;;-128.00;-1.00;-1.00;105433;1253;1004075;-78
2023/11/19 09:58:46;;;;;;;51.70;26.60;;;;;;;-128.00;-1.00;-1.00;105396;1252;1005147;-78
2023/11/19 10:01:13;;;;;;;37.90;21.30;;;;;;;-128.00;-1.00;-1.00;105476;1253;1004197;-78
2023/11/19 10:03:40;;;;;;;48.40;23.60;;;;;;;-128.00;-1.00;-1.00;105306;1253;1004178;-78
2023/11/19 10:06:07;;;;;;;48.90;26.50;;;;;;;-128.00;-1.00;-1.00;105445;1253;1005059;-78
2023/11/19 10:08:34;;;;;;;48.00;22.10;;;;;;;-128.00;-1.00;-1.00;105507;1252;1004100;-79
2023/11/19 10:11:00;;;;;;;77.70;37.50;;;;;;;-128.00;-1.00;-1.00;105434;1252;1004628;-78
2023/11/19 10:13:28;;;;;;;65.90;28.30;;;;;;;-128.00;-1.00;-1.00;105429;1253;1004431;-79
2023/11/19 10:15:58;;;;;;;82.10;41.10;;;;;;;-128.00;-1.00;-1.00;105423;1252;1004055;-78
2023/11/19 10:18:28;;;;;;;74.80;37.30;;;;;;;-128.00;-1.00;-1.00;105392;1252;1045277;-79
2023/11/19 10:20:54;;;;;;;78.00;40.50;;;;;;;-128.00;-1.00;-1.00;105479;1252;1046075;-78
2023/11/19 10:23:21;;;;;;;43.80;24.60;;;;;;;-128.00;-1.00;-1.00;105480;1253;1004746;-79
2023/11/19 10:25:48;;;;;;;33.70;17.40;;;;;;;-128.00;-1.00;-1.00;105465;1252;1003953;-78
2023/11/19 10:28:17;;;;;;;44.50;23.40;;;;;;;-128.00;-1.00;-1.00;105426;1252;1005001;-79
2023/11/19 10:30:44;;;;;;;44.20;25.10;;;;;;;-128.00;-1.00;-1.00;105242;1252;1045338;-78
2023/11/19 10:33:19;;;;;;;50.80;26.40;;;;;;;-128.00;-1.00;-1.00;105297;1252;1003751;-78
2023/11/19 10:35:56;;;;;;;52.50;26.60;;;;;;;-128.00;-1.00;-1.00;105347;1252;1061665;-78
2023/11/19 10:38:26;;;;;;;91.70;43.10;;;;;;;-128.00;-1.00;-1.00;105535;1252;1057620;-78
2023/11/19 10:40:53;;;;;;;46.70;24.70;;;;;;;-128.00;-1.00;-1.00;105523;1252;1058705;-78
2023/11/19 10:43:21;;;;;;;47.70;24.30;;;;;;;-128.00;-1.00;-1.00;105519;1252;1004689;-79
2023/11/19 10:45:48;;;;;;;39.40;21.60;;;;;;;-128.00;-1.00;-1.00;105545;1252;1003914;-79
2023/11/19 10:48:14;;;;;;;40.90;25.10;;;;;;;-128.00;-1.00;-1.00;105521;1252;1004376;-79
2023/11/19 10:50:42;;;;;;;41.10;21.70;;;;;;;-128.00;-1.00;-1.00;105539;1253;1004371;-79
2023/11/19 10:53:09;;;;;;;40.80;23.20;;;;;;;-128.00;-1.00;-1.00;105429;1252;1003602;-79
2023/11/19 10:55:40;;;;;;;38.10;19.70;;;;;;;-128.00;-1.00;-1.00;105555;1252;1004233;-78
2023/11/19 10:58:10;;;;;;;35.70;20.80;;;;;;;-128.00;-1.00;-1.00;105451;1253;1047841;-79
2023/11/19 11:00:43;;;;;;;33.20;17.40;;;;;;;-128.00;-1.00;-1.00;105494;1252;1062188;-78
2023/11/19 11:03:18;;;;;;;29.50;17.50;;;;;;;-128.00;-1.00;-1.00;105380;1252;1058854;-79